OAL97 LGKJ-LGRP
Flight info
| Callsign | OAL97 |
|---|---|
| Flight time | 0h 22m |
| Altitude | 16000 |
| Route | EXELA M601 LAKAD |
| Aircraft | AT46/M-SDFGIRY/S |
Departure
| Time | 2026-04-14 04:08 |
|---|---|
| Airport | Kastelorizo Airport (LGKJ) |
Arrival
| Time | 2026-04-14 04:30 |
|---|---|
| Airport | Rhodes International Airport "Diagoras" (LGRP) |
| Time | Latitude | Longitude | Altitude | Speed | Heading |
|---|---|---|---|---|---|
| 2026-04-14 03:31 | 36.14187 | 29.57687 | 477 ft | 0 kts | 233° |
| 2026-04-14 04:06 | 36.14176 | 29.57676 | 472 ft | 5 kts | 210° |
| 2026-04-14 04:06 | 36.14128 | 29.57687 | 476 ft | 10 kts | 145° |
| 2026-04-14 04:06 | 36.14068 | 29.57746 | 471 ft | 12 kts | 138° |
| 2026-04-14 04:07 | 36.14002 | 29.57820 | 466 ft | 13 kts | 136° |
| 2026-04-14 04:07 | 36.13954 | 29.57901 | 464 ft | 8 kts | 112° |
| 2026-04-14 04:07 | 36.13920 | 29.57926 | 464 ft | 3 kts | 232° |
| 2026-04-14 04:07 | 36.13933 | 29.57900 | 464 ft | 11 kts | 312° |
| 2026-04-14 04:08 | 36.14111 | 29.57701 | 472 ft | 67 kts | 317° |
| 2026-04-14 04:08 | 36.14625 | 29.57106 | 683 ft | 119 kts | 317° |
| 2026-04-14 04:08 | 36.15249 | 29.56316 | 1369 ft | 136 kts | 312° |
| 2026-04-14 04:08 | 36.15425 | 29.55211 | 2249 ft | 146 kts | 250° |
| 2026-04-14 04:09 | 36.14874 | 29.54185 | 2946 ft | 135 kts | 222° |
| 2026-04-14 04:09 | 36.14157 | 29.53579 | 3628 ft | 123 kts | 207° |
| 2026-04-14 04:09 | 36.13412 | 29.53018 | 4050 ft | 127 kts | 225° |
| 2026-04-14 04:09 | 36.13383 | 29.51845 | 4192 ft | 158 kts | 291° |
| 2026-04-14 04:10 | 36.13769 | 29.50462 | 4506 ft | 175 kts | 287° |
| 2026-04-14 04:10 | 36.14091 | 29.49014 | 5106 ft | 173 kts | 282° |
| 2026-04-14 04:10 | 36.14313 | 29.47554 | 5750 ft | 172 kts | 279° |
| 2026-04-14 04:10 | 36.14477 | 29.46090 | 6351 ft | 172 kts | 277° |
| 2026-04-14 04:11 | 36.14619 | 29.44623 | 6922 ft | 172 kts | 277° |
| 2026-04-14 04:11 | 36.14761 | 29.43151 | 7476 ft | 172 kts | 277° |
| 2026-04-14 04:11 | 36.14901 | 29.41689 | 7969 ft | 176 kts | 277° |
| 2026-04-14 04:11 | 36.15056 | 29.40102 | 8132 ft | 197 kts | 277° |
| 2026-04-14 04:12 | 36.15229 | 29.38325 | 8173 ft | 218 kts | 277° |
| 2026-04-14 04:12 | 36.15413 | 29.36397 | 8177 ft | 233 kts | 277° |
| 2026-04-14 04:12 | 36.15607 | 29.34359 | 8181 ft | 243 kts | 277° |
| 2026-04-14 04:12 | 36.15805 | 29.32252 | 8183 ft | 249 kts | 277° |
| 2026-04-14 04:13 | 36.16010 | 29.30109 | 8182 ft | 253 kts | 277° |
| 2026-04-14 04:13 | 36.16219 | 29.27926 | 8186 ft | 256 kts | 277° |
| 2026-04-14 04:13 | 36.16427 | 29.25736 | 8184 ft | 258 kts | 277° |
| 2026-04-14 04:13 | 36.16638 | 29.23527 | 8186 ft | 259 kts | 277° |
| 2026-04-14 04:14 | 36.16846 | 29.21312 | 8185 ft | 259 kts | 277° |
| 2026-04-14 04:14 | 36.17056 | 29.19090 | 8188 ft | 260 kts | 277° |
| 2026-04-14 04:14 | 36.17266 | 29.16871 | 8189 ft | 260 kts | 277° |
| 2026-04-14 04:14 | 36.17477 | 29.14646 | 8191 ft | 260 kts | 277° |
| 2026-04-14 04:15 | 36.17686 | 29.12426 | 8193 ft | 260 kts | 277° |
| 2026-04-14 04:15 | 36.17891 | 29.10204 | 8193 ft | 260 kts | 277° |
| 2026-04-14 04:15 | 36.18099 | 29.07982 | 8193 ft | 260 kts | 277° |
| 2026-04-14 04:15 | 36.18308 | 29.05758 | 8195 ft | 260 kts | 277° |
| 2026-04-14 04:16 | 36.18517 | 29.03536 | 8201 ft | 261 kts | 277° |
| 2026-04-14 04:16 | 36.18722 | 29.01297 | 8208 ft | 262 kts | 277° |
| 2026-04-14 04:16 | 36.18930 | 28.99060 | 8196 ft | 261 kts | 277° |
| 2026-04-14 04:16 | 36.19138 | 28.96827 | 8206 ft | 261 kts | 277° |
| 2026-04-14 04:17 | 36.19344 | 28.94594 | 8207 ft | 261 kts | 277° |
| 2026-04-14 04:17 | 36.19550 | 28.92365 | 8203 ft | 261 kts | 277° |
| 2026-04-14 04:17 | 36.19756 | 28.90135 | 8205 ft | 261 kts | 277° |
| 2026-04-14 04:17 | 36.19960 | 28.87901 | 8203 ft | 261 kts | 277° |
| 2026-04-14 04:18 | 36.20165 | 28.85669 | 8201 ft | 261 kts | 277° |
| 2026-04-14 04:18 | 36.20369 | 28.83439 | 8196 ft | 261 kts | 277° |
| 2026-04-14 04:18 | 36.20574 | 28.81211 | 8199 ft | 261 kts | 277° |
| 2026-04-14 04:18 | 36.20778 | 28.78976 | 8200 ft | 261 kts | 277° |
| 2026-04-14 04:19 | 36.20979 | 28.76743 | 8196 ft | 261 kts | 277° |
| 2026-04-14 04:19 | 36.21182 | 28.74519 | 8197 ft | 261 kts | 277° |
| 2026-04-14 04:19 | 36.21383 | 28.72281 | 8195 ft | 261 kts | 277° |
| 2026-04-14 04:19 | 36.21587 | 28.70043 | 8197 ft | 261 kts | 277° |
| 2026-04-14 04:20 | 36.21786 | 28.67845 | 8193 ft | 261 kts | 277° |
| 2026-04-14 04:20 | 36.21983 | 28.65618 | 8189 ft | 260 kts | 277° |
| 2026-04-14 04:20 | 36.22184 | 28.63391 | 8189 ft | 260 kts | 277° |
| 2026-04-14 04:20 | 36.22383 | 28.61156 | 8187 ft | 260 kts | 277° |
| 2026-04-14 04:21 | 36.22583 | 28.58933 | 8186 ft | 260 kts | 277° |
| 2026-04-14 04:21 | 36.22783 | 28.56707 | 8190 ft | 260 kts | 277° |
| 2026-04-14 04:21 | 36.22982 | 28.54479 | 8185 ft | 260 kts | 277° |
| 2026-04-14 04:21 | 36.23186 | 28.52231 | 7820 ft | 262 kts | 277° |
| 2026-04-14 04:22 | 36.23388 | 28.49994 | 7454 ft | 258 kts | 277° |
| 2026-04-14 04:22 | 36.23887 | 28.47980 | 7428 ft | 237 kts | 296° |
| 2026-04-14 04:22 | 36.24660 | 28.46261 | 7405 ft | 221 kts | 300° |
| 2026-04-14 04:22 | 36.25418 | 28.44661 | 7374 ft | 210 kts | 300° |
| 2026-04-14 04:23 | 36.26128 | 28.43109 | 7245 ft | 207 kts | 298° |
| 2026-04-14 04:23 | 36.26987 | 28.41703 | 6995 ft | 205 kts | 314° |
| 2026-04-14 04:23 | 36.28008 | 28.40454 | 6757 ft | 208 kts | 314° |
| 2026-04-14 04:23 | 36.29045 | 28.39199 | 6513 ft | 209 kts | 315° |
| 2026-04-14 04:24 | 36.30088 | 28.37946 | 6258 ft | 209 kts | 315° |
| 2026-04-14 04:24 | 36.31134 | 28.36688 | 6012 ft | 210 kts | 315° |
| 2026-04-14 04:24 | 36.32187 | 28.35421 | 5764 ft | 211 kts | 315° |
| 2026-04-14 04:24 | 36.33235 | 28.34153 | 5511 ft | 210 kts | 315° |
| 2026-04-14 04:25 | 36.34264 | 28.32899 | 5260 ft | 204 kts | 315° |
| 2026-04-14 04:25 | 36.35248 | 28.31690 | 5008 ft | 196 kts | 315° |
| 2026-04-14 04:25 | 36.36196 | 28.30509 | 4753 ft | 189 kts | 315° |
| 2026-04-14 04:25 | 36.37110 | 28.29363 | 4499 ft | 185 kts | 315° |
| 2026-04-14 04:26 | 36.38007 | 28.28233 | 4244 ft | 182 kts | 315° |
| 2026-04-14 04:26 | 36.38887 | 28.27119 | 3993 ft | 180 kts | 315° |
| 2026-04-14 04:26 | 36.39741 | 28.26029 | 3736 ft | 177 kts | 315° |
| 2026-04-14 04:26 | 36.40595 | 28.24942 | 3413 ft | 171 kts | 315° |
| 2026-04-14 04:27 | 36.41396 | 28.23899 | 3096 ft | 166 kts | 313° |
| 2026-04-14 04:27 | 36.42047 | 28.22728 | 3024 ft | 160 kts | 297° |
| 2026-04-14 04:27 | 36.42323 | 28.21480 | 2996 ft | 139 kts | 281° |
| 2026-04-14 04:27 | 36.42445 | 28.20376 | 2694 ft | 126 kts | 275° |
| 2026-04-14 04:28 | 36.42511 | 28.19315 | 2405 ft | 123 kts | 274° |
| 2026-04-14 04:28 | 36.42569 | 28.18235 | 2317 ft | 124 kts | 273° |
| 2026-04-14 04:28 | 36.42580 | 28.17508 | 2185 ft | 127 kts | 268° |
| 2026-04-14 04:28 | 36.42486 | 28.16418 | 1860 ft | 125 kts | 263° |
| 2026-04-14 04:29 | 36.42356 | 28.15365 | 1430 ft | 124 kts | 262° |
| 2026-04-14 04:29 | 36.42180 | 28.14352 | 1065 ft | 120 kts | 255° |
| 2026-04-14 04:29 | 36.41935 | 28.13358 | 722 ft | 118 kts | 250° |
| 2026-04-14 04:29 | 36.41664 | 28.12436 | 451 ft | 111 kts | 247° |
| 2026-04-14 04:30 | 36.41407 | 28.11561 | 281 ft | 107 kts | 249° |
| 2026-04-14 04:30 | 36.41153 | 28.10707 | 120 ft | 103 kts | 248° |
| 2026-04-14 04:30 | 36.40896 | 28.09832 | 32 ft | 109 kts | 248° |
| 2026-04-14 04:30 | 36.40686 | 28.09115 | 27 ft | 48 kts | 250° |
| 2026-04-14 04:31 | 36.40628 | 28.08925 | 25 ft | 18 kts | 252° |
| 2026-04-14 04:31 | 36.40588 | 28.08785 | 26 ft | 17 kts | 250° |
| 2026-04-14 04:31 | 36.40487 | 28.08632 | 25 ft | 8 kts | 129° |
| 2026-04-14 04:32 | 36.40463 | 28.08685 | 28 ft | 6 kts | 115° |
| 2026-04-14 04:32 | 36.40445 | 28.08732 | 24 ft | 6 kts | 115° |
| 2026-04-14 04:32 | 36.40417 | 28.08783 | 26 ft | 8 kts | 123° |
| 2026-04-14 04:32 | 36.40398 | 28.08912 | 25 ft | 13 kts | 92° |
| 2026-04-14 04:33 | 36.40413 | 28.09049 | 27 ft | 18 kts | 72° |
| 2026-04-14 04:33 | 36.40441 | 28.09148 | 27 ft | 8 kts | 71° |
| 2026-04-14 04:33 | 36.40461 | 28.09160 | 25 ft | 7 kts | 329° |
| 2026-04-14 04:33 | 36.40492 | 28.09113 | 27 ft | 4 kts | 306° |
| 2026-04-14 04:34 | 36.40499 | 28.09100 | 25 ft | 0 kts | 306° |
| 2026-04-14 04:34 | 36.40502 | 28.09095 | 25 ft | 1 kts | 306° |
| 2026-04-14 04:34 | 36.40503 | 28.09094 | 25 ft | 0 kts | 306° |